Time;durP1;ratioP1;P1;durP2;ratioP2;P2;SDS_P1;SDS_P2;PMS_P1;PMS_P2;Temp;Humidity;BMP_temperature;BMP_pressure;BME280_temperature;BME280_humidity;BME280_pressure;Samples;Min_cycle;Max_cycle;Signal;HPM_P1;HPM_P2
2022/05/30 00:04:48;;;;;;;0.80;0.80;;;;;;;;;;10496701;28;20028;-51
2022/05/30 00:09:48;;;;;;;2.30;0.90;;;;;;;;;;10496975;28;20094;-44
2022/05/30 00:14:49;;;;;;;4.85;0.90;;;;;;;;;;10497052;28;20036;-44
2022/05/30 00:19:50;;;;;;;0.95;0.75;;;;;;;;;;10497168;28;20044;-44
2022/05/30 00:24:50;;;;;;;1.30;0.95;;;;;;;;;;10496297;28;20060;-44
2022/05/30 00:29:51;;;;;;;1.70;0.82;;;;;;;;;;10484352;28;20049;-44
2022/05/30 00:34:52;;;;;;;1.08;0.88;;;;;;;;;;10479188;28;20024;-44
2022/05/30 00:39:52;;;;;;;1.52;0.80;;;;;;;;;;10477593;28;20059;-45
2022/05/30 00:44:54;;;;;;;1.55;0.70;;;;;;;;;;10482992;28;20035;-45
2022/05/30 00:49:55;;;;;;;1.40;0.80;;;;;;;;;;10486150;28;20533;-44
2022/05/30 00:55:05;;;;;;;0.98;0.80;;;;;;;;;;10494473;28;20037;-44
2022/05/30 01:00:20;;;;;;;1.00;0.80;;;;;;;;;;10472844;28;20052;-44
2022/05/30 01:10:40;;;;;;;1.52;0.73;;;;;;;;;;10488223;28;20033;-45
2022/05/30 01:15:41;;;;;;;1.90;0.73;;;;;;;;;;10494225;28;20024;-44
2022/05/30 01:21:25;;;;;;;0.80;0.70;;;;;;;;;;10491647;28;20028;-44
2022/05/30 01:26:47;;;;;;;2.08;0.70;;;;;;;;;;10469390;28;20587;-44
2022/05/30 01:31:48;;;;;;;2.38;0.75;;;;;;;;;;10484643;28;20041;-44
2022/05/30 01:36:49;;;;;;;2.67;1.02;;;;;;;;;;10483012;28;20098;-44
2022/05/30 01:41:49;;;;;;;3.13;0.80;;;;;;;;;;10491504;28;20037;-44
2022/05/30 01:46:50;;;;;;;1.27;0.80;;;;;;;;;;10481347;28;20502;-44
2022/05/30 01:51:54;;;;;;;0.90;0.82;;;;;;;;;;10490813;28;20621;-44
2022/05/30 01:56:55;;;;;;;0.80;0.80;;;;;;;;;;10490688;28;20115;-44
2022/05/30 02:01:55;;;;;;;2.00;0.80;;;;;;;;;;10483644;28;20090;-44
2022/05/30 02:06:56;;;;;;;2.47;0.88;;;;;;;;;;10492598;28;20086;-45
2022/05/30 02:11:57;;;;;;;1.33;0.73;;;;;;;;;;10482988;28;20032;-44
2022/05/30 02:17:00;;;;;;;3.58;0.80;;;;;;;;;;10491179;28;20028;-44
2022/05/30 02:22:01;;;;;;;1.20;0.70;;;;;;;;;;10483705;28;20028;-44
2022/05/30 02:27:03;;;;;;;1.42;0.68;;;;;;;;;;10485075;28;20032;-44
2022/05/30 02:32:04;;;;;;;2.22;0.70;;;;;;;;;;10479627;28;20116;-44
2022/05/30 02:37:05;;;;;;;0.77;0.77;;;;;;;;;;10490595;28;20075;-44
2022/05/30 02:42:06;;;;;;;0.73;0.70;;;;;;;;;;10473193;28;20020;-44
2022/05/30 02:47:06;;;;;;;2.63;0.70;;;;;;;;;;10490659;28;20115;-44
2022/05/30 02:52:07;;;;;;;2.45;0.70;;;;;;;;;;10486572;28;20032;-44
2022/05/30 02:57:08;;;;;;;0.98;0.73;;;;;;;;;;10484612;28;20028;-44
2022/05/30 03:02:09;;;;;;;0.50;0.50;;;;;;;;;;10489168;28;20079;-43
2022/05/30 03:07:09;;;;;;;1.58;0.63;;;;;;;;;;10478231;28;20062;-43
2022/05/30 03:12:10;;;;;;;2.13;0.60;;;;;;;;;;10489245;28;20021;-44
2022/05/30 03:17:11;;;;;;;3.90;0.90;;;;;;;;;;10477192;28;20060;-44
2022/05/30 03:22:11;;;;;;;5.28;0.90;;;;;;;;;;10486245;28;20484;-44
2022/05/30 03:27:12;;;;;;;2.70;1.33;;;;;;;;;;10481425;28;20052;-44
2022/05/30 03:32:12;;;;;;;1.23;0.73;;;;;;;;;;10486430;28;20051;-45
2022/05/30 03:37:13;;;;;;;1.30;0.88;;;;;;;;;;10487116;28;20033;-44
2022/05/30 03:42:14;;;;;;;0.95;0.70;;;;;;;;;;10481458;28;20025;-44
2022/05/30 03:47:16;;;;;;;0.70;0.65;;;;;;;;;;10484573;28;20039;-44
2022/05/30 03:52:16;;;;;;;0.85;0.70;;;;;;;;;;10487802;28;20182;-44
2022/05/30 03:57:17;;;;;;;1.05;0.60;;;;;;;;;;10482304;28;20090;-44
2022/05/30 04:02:17;;;;;;;0.57;0.52;;;;;;;;;;10476550;28;20027;-53
2022/05/30 04:07:18;;;;;;;0.60;0.60;;;;;;;;;;10484761;28;20032;-45
2022/05/30 04:12:22;;;;;;;0.57;0.57;;;;;;;;;;10462289;28;20033;-45
2022/05/30 04:17:24;;;;;;;0.90;0.60;;;;;;;;;;10488565;28;20050;-43
2022/05/30 04:22:25;;;;;;;0.70;0.60;;;;;;;;;;10488432;28;20055;-44
2022/05/30 04:27:25;;;;;;;1.27;0.68;;;;;;;;;;10470095;28;20071;-44
2022/05/30 04:32:26;;;;;;;0.82;0.60;;;;;;;;;;10488070;28;20052;-44
2022/05/30 04:37:31;;;;;;;1.05;0.57;;;;;;;;;;10486783;28;20031;-44
2022/05/30 04:42:32;;;;;;;0.65;0.65;;;;;;;;;;10477468;28;20036;-44
2022/05/30 04:47:35;;;;;;;2.42;0.80;;;;;;;;;;10494224;28;20389;-45
2022/05/30 04:52:36;;;;;;;1.98;0.70;;;;;;;;;;10494886;28;20029;-44
2022/05/30 04:57:48;;;;;;;2.45;0.88;;;;;;;;;;10479796;28;20024;-46
2022/05/30 05:02:52;;;;;;;4.70;0.77;;;;;;;;;;10490700;28;20052;-49
2022/05/30 05:08:04;;;;;;;1.27;0.70;;;;;;;;;;10493228;28;20055;-49
2022/05/30 05:13:05;;;;;;;0.80;0.60;;;;;;;;;;10483405;28;20040;-50
2022/05/30 05:18:06;;;;;;;2.53;0.75;;;;;;;;;;10485616;28;20036;-46
2022/05/30 05:23:06;;;;;;;1.35;0.68;;;;;;;;;;10486761;28;20028;-45
2022/05/30 05:28:07;;;;;;;11.93;0.80;;;;;;;;;;10464899;28;20028;-46
2022/05/30 05:33:10;;;;;;;4.85;1.20;;;;;;;;;;10482520;28;20044;-45
2022/05/30 05:38:11;;;;;;;6.97;0.90;;;;;;;;;;10466772;28;20064;-44
2022/05/30 05:43:13;;;;;;;5.07;0.80;;;;;;;;;;10478228;28;20111;-50
2022/05/30 05:48:14;;;;;;;2.50;1.02;;;;;;;;;;10486341;28;20024;-46
2022/05/30 05:53:15;;;;;;;2.13;0.68;;;;;;;;;;10476917;28;20051;-45
2022/05/30 05:58:16;;;;;;;8.07;0.93;;;;;;;;;;10482790;28;20516;-46
2022/05/30 06:03:16;;;;;;;1.55;0.75;;;;;;;;;;10486114;28;20024;-45
2022/05/30 06:08:17;;;;;;;1.25;0.70;;;;;;;;;;10492617;28;20522;-54
2022/05/30 06:13:18;;;;;;;1.70;0.70;;;;;;;;;;10472958;28;20476;-50
2022/05/30 06:18:18;;;;;;;3.90;1.00;;;;;;;;;;10489558;28;20387;-50
2022/05/30 06:23:19;;;;;;;6.30;0.95;;;;;;;;;;10490781;28;20029;-50
2022/05/30 06:28:19;;;;;;;7.28;0.77;;;;;;;;;;10488429;28;20036;-49
2022/05/30 06:33:20;;;;;;;12.13;1.52;;;;;;;;;;10491209;28;20052;-44
2022/05/30 06:38:20;;;;;;;7.05;1.10;;;;;;;;;;10487864;28;20027;-45
2022/05/30 06:43:21;;;;;;;6.32;1.20;;;;;;;;;;10486996;28;20027;-50
2022/05/30 06:48:22;;;;;;;3.35;0.80;;;;;;;;;;10490708;28;20051;-45
2022/05/30 06:53:22;;;;;;;4.07;1.13;;;;;;;;;;10490622;28;20036;-46
2022/05/30 06:58:24;;;;;;;5.70;1.65;;;;;;;;;;10489427;28;20115;-54
2022/05/30 07:03:24;;;;;;;4.85;1.02;;;;;;;;;;10487240;28;20047;-45
2022/05/30 07:08:25;;;;;;;13.15;1.08;;;;;;;;;;10490299;28;20051;-54
2022/05/30 07:13:26;;;;;;;6.50;1.23;;;;;;;;;;10479518;28;20032;-45
2022/05/30 07:18:27;;;;;;;2.80;0.85;;;;;;;;;;10490162;28;20062;-53
2022/05/30 07:23:28;;;;;;;3.20;1.00;;;;;;;;;;10477843;28;20036;-45
2022/05/30 07:28:30;;;;;;;5.25;1.02;;;;;;;;;;10490217;28;20028;-45
2022/05/30 07:33:33;;;;;;;2.67;0.77;;;;;;;;;;10489868;28;20136;-45
2022/05/30 07:38:33;;;;;;;3.88;0.98;;;;;;;;;;10479861;28;20021;-52
2022/05/30 07:43:36;;;;;;;3.08;1.00;;;;;;;;;;10489909;28;20029;-50
2022/05/30 07:48:38;;;;;;;7.07;1.23;;;;;;;;;;10489823;28;20017;-50
2022/05/30 07:53:41;;;;;;;3.28;1.00;;;;;;;;;;10486538;28;20528;-52
2022/05/30 07:58:41;;;;;;;5.28;0.90;;;;;;;;;;10471827;28;20089;-53
2022/05/30 08:03:42;;;;;;;4.22;0.80;;;;;;;;;;10486733;28;20033;-45
2022/05/30 08:08:44;;;;;;;4.00;0.90;;;;;;;;;;10481279;28;20027;-47
2022/05/30 08:13:45;;;;;;;4.65;0.90;;;;;;;;;;10491475;28;20618;-53
2022/05/30 08:18:46;;;;;;;7.55;0.70;;;;;;;;;;10497174;28;20507;-45
2022/05/30 08:23:47;;;;;;;3.17;0.70;;;;;;;;;;10484661;28;20282;-50
2022/05/30 08:28:47;;;;;;;2.95;1.15;;;;;;;;;;10484858;28;20036;-44
2022/05/30 08:33:48;;;;;;;2.10;0.90;;;;;;;;;;10487632;28;20036;-48
2022/05/30 08:38:48;;;;;;;4.45;0.93;;;;;;;;;;10480437;28;20029;-46
2022/05/30 08:43:52;;;;;;;2.95;0.82;;;;;;;;;;10493757;28;20056;-47
2022/05/30 08:49:26;;;;;;;1.65;0.95;;;;;;;;;;10495460;28;20599;-45
2022/05/30 08:55:03;;;;;;;4.28;1.00;;;;;;;;;;10492602;28;20072;-46
2022/05/30 09:00:22;;;;;;;4.70;0.90;;;;;;;;;;10482806;28;20068;-46
2022/05/30 09:05:43;;;;;;;3.42;1.08;;;;;;;;;;10476618;28;21058;-44
2022/05/30 09:10:56;;;;;;;4.25;0.65;;;;;;;;;;10475037;28;20224;-47
2022/05/30 09:16:29;;;;;;;0.93;0.70;;;;;;;;;;10492581;28;20124;-44
2022/05/30 09:21:32;;;;;;;2.25;0.95;;;;;;;;;;10487474;28;20456;-48
2022/05/30 09:26:40;;;;;;;9.23;1.00;;;;;;;;;;10486147;28;20030;-45
2022/05/30 09:32:05;;;;;;;2.00;0.67;;;;;;;;;;10494345;28;20041;-47
2022/05/30 09:37:07;;;;;;;1.02;0.65;;;;;;;;;;10493667;28;20242;-45
2022/05/30 09:42:25;;;;;;;2.45;0.85;;;;;;;;;;10482056;28;20392;-46
2022/05/30 09:47:25;;;;;;;1.88;0.65;;;;;;;;;;10461923;28;20115;-44
2022/05/30 09:52:39;;;;;;;1.23;0.77;;;;;;;;;;10493310;28;20032;-53
2022/05/30 09:57:42;;;;;;;2.58;0.80;;;;;;;;;;10480542;28;20558;-45
2022/05/30 10:02:45;;;;;;;2.20;0.70;;;;;;;;;;10492985;28;20020;-45
2022/05/30 10:07:58;;;;;;;1.63;0.80;;;;;;;;;;10492681;28;20024;-54
2022/05/30 10:13:05;;;;;;;3.97;1.00;;;;;;;;;;10491027;28;20036;-56
2022/05/30 10:18:18;;;;;;;1.60;0.85;;;;;;;;;;10492223;28;20028;-47
2022/05/30 10:29:24;;;;;;;1.58;0.90;;;;;;;;;;10479181;28;20076;-44
2022/05/30 10:35:23;;;;;;;1.92;0.60;;;;;;;;;;10445567;28;20023;-46
2022/05/30 10:40:53;;;;;;;1.10;0.82;;;;;;;;;;10444560;28;20078;-44
2022/05/30 10:46:08;;;;;;;2.08;1.00;;;;;;;;;;10469614;28;20395;-50
2022/05/30 10:51:29;;;;;;;0.70;0.70;;;;;;;;;;10474492;28;20487;-45
2022/05/30 10:56:35;;;;;;;2.95;0.85;;;;;;;;;;10491574;28;20509;-48
2022/05/30 11:01:50;;;;;;;0.77;0.70;;;;;;;;;;10472959;28;20483;-51
2022/05/30 11:06:53;;;;;;;1.05;0.90;;;;;;;;;;10460923;28;20036;-44
2022/05/30 11:12:02;;;;;;;1.65;0.75;;;;;;;;;;10476398;28;20028;-48
2022/05/30 11:17:18;;;;;;;1.33;0.73;;;;;;;;;;10477792;28;20111;-43
2022/05/30 11:22:54;;;;;;;1.23;0.70;;;;;;;;;;10482774;28;20032;-46
2022/05/30 11:28:38;;;;;;;1.83;0.80;;;;;;;;;;10458013;28;20025;-55
2022/05/30 11:34:00;;;;;;;3.00;0.80;;;;;;;;;;10470974;28;20081;-44
2022/05/30 11:39:48;;;;;;;1.20;0.65;;;;;;;;;;10480619;28;20063;-48
2022/05/30 11:44:55;;;;;;;3.22;1.08;;;;;;;;;;10478392;28;20021;-45
2022/05/30 11:50:18;;;;;;;2.47;1.00;;;;;;;;;;10477644;28;20037;-49
2022/05/30 11:55:26;;;;;;;1.08;0.80;;;;;;;;;;10476980;28;20422;-46
2022/05/30 12:00:50;;;;;;;1.50;0.70;;;;;;;;;;10481054;28;20028;-59
2022/05/30 12:06:08;;;;;;;1.65;0.77;;;;;;;;;;10497511;28;20063;-58
2022/05/30 12:11:30;;;;;;;4.05;1.10;;;;;;;;;;10495754;28;20157;-59
2022/05/30 12:16:45;;;;;;;6.47;1.13;;;;;;;;;;10482359;28;20140;-50
2022/05/30 12:27:33;;;;;;;2.80;0.90;;;;;;;;;;10494677;28;20369;-52
2022/05/30 12:32:37;;;;;;;4.13;1.00;;;;;;;;;;10491454;28;20040;-48
2022/05/30 12:37:47;;;;;;;1.80;0.65;;;;;;;;;;10495440;28;20029;-51
2022/05/30 12:43:37;;;;;;;1.02;0.88;;;;;;;;;;10491821;28;20383;-57
2022/05/30 12:48:59;;;;;;;1.58;0.68;;;;;;;;;;10493784;28;20044;-57
2022/05/30 12:54:01;;;;;;;7.78;0.77;;;;;;;;;;10494817;28;20024;-52
2022/05/30 12:59:04;;;;;;;1.15;0.63;;;;;;;;;;10494606;28;20051;-58
2022/05/30 13:04:29;;;;;;;3.13;0.73;;;;;;;;;;10492879;28;20031;-56
2022/05/30 13:09:43;;;;;;;4.60;0.80;;;;;;;;;;10483371;28;20021;-59
2022/05/30 13:14:49;;;;;;;2.45;1.00;;;;;;;;;;10482819;28;20115;-59
2022/05/30 13:19:55;;;;;;;3.10;0.80;;;;;;;;;;10486195;28;20040;-58
2022/05/30 13:24:56;;;;;;;1.95;0.70;;;;;;;;;;10488141;28;20044;-50
2022/05/30 13:30:08;;;;;;;4.35;0.85;;;;;;;;;;10490188;28;20032;-57
2022/05/30 13:35:13;;;;;;;9.10;0.90;;;;;;;;;;10475515;28;20036;-55
2022/05/30 13:40:24;;;;;;;3.25;1.00;;;;;;;;;;10451162;28;20048;-57
2022/05/30 13:45:34;;;;;;;2.55;0.70;;;;;;;;;;10462128;28;20062;-56
2022/05/30 13:50:52;;;;;;;4.10;0.80;;;;;;;;;;10466286;28;20087;-44
2022/05/30 13:56:23;;;;;;;1.85;1.00;;;;;;;;;;10452651;28;20039;-44
2022/05/30 14:01:31;;;;;;;2.65;1.05;;;;;;;;;;10462167;28;20021;-45
2022/05/30 14:06:43;;;;;;;1.00;0.80;;;;;;;;;;10452183;28;20064;-58
2022/05/30 14:12:01;;;;;;;3.67;0.80;;;;;;;;;;10485000;28;20120;-44
2022/05/30 14:17:04;;;;;;;3.15;0.85;;;;;;;;;;10448246;28;20453;-59
2022/05/30 14:22:16;;;;;;;7.40;0.80;;;;;;;;;;10475477;28;20059;-58
2022/05/30 14:27:21;;;;;;;5.97;1.05;;;;;;;;;;10466036;28;20044;-56
2022/05/30 14:32:26;;;;;;;2.53;0.85;;;;;;;;;;10454860;28;20052;-59
2022/05/30 14:37:33;;;;;;;0.75;0.75;;;;;;;;;;10478526;28;20634;-53
2022/05/30 14:42:36;;;;;;;3.70;0.80;;;;;;;;;;10477342;28;20361;-47
2022/05/30 14:47:42;;;;;;;2.63;0.70;;;;;;;;;;10485416;28;20029;-57
2022/05/30 14:52:52;;;;;;;1.70;0.90;;;;;;;;;;10468591;28;20106;-58
2022/05/30 14:57:57;;;;;;;6.32;0.80;;;;;;;;;;10473979;28;20158;-58
2022/05/30 15:08:18;;;;;;;0.82;0.60;;;;;;;;;;10477808;28;20595;-58
2022/05/30 15:13:19;;;;;;;0.98;0.80;;;;;;;;;;10471383;28;20024;-59
2022/05/30 15:18:20;;;;;;;4.35;0.95;;;;;;;;;;10487238;28;20039;-55
2022/05/30 15:23:21;;;;;;;2.17;0.73;;;;;;;;;;10457188;28;20025;-47
2022/05/30 15:28:22;;;;;;;2.20;0.80;;;;;;;;;;10482357;28;20055;-47
2022/05/30 15:33:24;;;;;;;2.30;0.80;;;;;;;;;;10471510;28;20605;-52
2022/05/30 15:38:25;;;;;;;2.58;0.65;;;;;;;;;;10471761;28;20159;-58
2022/05/30 15:43:27;;;;;;;0.90;0.55;;;;;;;;;;10484861;28;20032;-49
2022/05/30 15:48:28;;;;;;;2.30;0.90;;;;;;;;;;10454565;28;20025;-58
2022/05/30 15:58:49;;;;;;;2.03;0.80;;;;;;;;;;10466121;28;20032;-44
2022/05/30 16:03:51;;;;;;;1.00;0.93;;;;;;;;;;10471210;28;20028;-45
2022/05/30 16:08:52;;;;;;;1.58;0.93;;;;;;;;;;10471130;28;20059;-47
2022/05/30 16:13:53;;;;;;;4.10;0.80;;;;;;;;;;10457053;28;20120;-54
2022/05/30 16:18:53;;;;;;;1.73;0.70;;;;;;;;;;10481397;28;20024;-44
2022/05/30 16:23:59;;;;;;;4.07;0.88;;;;;;;;;;10479779;28;20036;-45
2022/05/30 16:29:00;;;;;;;0.68;0.68;;;;;;;;;;10475925;28;20098;-44
2022/05/30 16:34:01;;;;;;;3.25;0.90;;;;;;;;;;10488887;28;20039;-45
2022/05/30 16:39:04;;;;;;;1.35;0.80;;;;;;;;;;10489097;28;20028;-50
2022/05/30 16:44:04;;;;;;;1.15;0.80;;;;;;;;;;10488094;28;20103;-45
2022/05/30 16:49:08;;;;;;;1.65;0.73;;;;;;;;;;10487351;28;20024;-48
2022/05/30 16:54:10;;;;;;;2.05;0.85;;;;;;;;;;10481855;28;20047;-51
2022/05/30 16:59:13;;;;;;;8.32;1.48;;;;;;;;;;10494197;28;20033;-45
2022/05/30 17:04:14;;;;;;;1.75;0.77;;;;;;;;;;10467900;28;20062;-43
2022/05/30 17:09:24;;;;;;;1.08;0.80;;;;;;;;;;10488572;28;20054;-44
2022/05/30 17:14:26;;;;;;;1.75;1.05;;;;;;;;;;10489038;28;20029;-43
2022/05/30 17:19:29;;;;;;;3.72;0.80;;;;;;;;;;10483089;28;20502;-45
2022/05/30 17:24:29;;;;;;;1.42;0.90;;;;;;;;;;10475639;28;20213;-43
2022/05/30 17:29:34;;;;;;;2.25;0.90;;;;;;;;;;10474726;28;20158;-43
2022/05/30 17:34:35;;;;;;;0.95;0.80;;;;;;;;;;10475915;28;20476;-43
2022/05/30 17:39:48;;;;;;;1.92;0.85;;;;;;;;;;10477017;28;20037;-44
2022/05/30 17:45:01;;;;;;;3.22;0.93;;;;;;;;;;10471247;28;20031;-43
2022/05/30 17:50:13;;;;;;;4.75;0.90;;;;;;;;;;10485181;28;20032;-45
2022/05/30 17:55:16;;;;;;;3.35;0.80;;;;;;;;;;10490273;28;20024;-43
2022/05/30 18:00:21;;;;;;;2.58;0.80;;;;;;;;;;10480258;28;20033;-43
2022/05/30 18:05:23;;;;;;;1.30;0.93;;;;;;;;;;10479648;28;20021;-44
2022/05/30 18:10:26;;;;;;;2.42;1.15;;;;;;;;;;10482107;28;20638;-44
2022/05/30 18:16:03;;;;;;;0.80;0.80;;;;;;;;;;10484555;28;20028;-44
2022/05/30 18:21:39;;;;;;;2.92;1.00;;;;;;;;;;10462156;28;20497;-44
2022/05/30 18:26:40;;;;;;;2.72;1.00;;;;;;;;;;10461689;28;20067;-46
2022/05/30 18:31:54;;;;;;;2.30;0.80;;;;;;;;;;10485029;28;20127;-43
2022/05/30 18:37:31;;;;;;;2.20;0.90;;;;;;;;;;10473625;28;20028;-43
2022/05/30 18:42:46;;;;;;;1.42;0.95;;;;;;;;;;10466561;28;20067;-43
2022/05/30 18:48:41;;;;;;;3.72;0.90;;;;;;;;;;10463478;28;20128;-43
2022/05/30 18:53:42;;;;;;;2.53;0.80;;;;;;;;;;10388452;28;20238;-44
2022/05/30 18:59:16;;;;;;;4.40;1.00;;;;;;;;;;10471864;28;20426;-44
2022/05/30 19:04:19;;;;;;;3.10;0.80;;;;;;;;;;10447995;28;20045;-43
2022/05/30 19:09:20;;;;;;;12.27;1.60;;;;;;;;;;10461939;28;20128;-44
2022/05/30 19:14:33;;;;;;;3.40;1.20;;;;;;;;;;10460923;28;20295;-43
2022/05/30 19:19:54;;;;;;;1.15;1.00;;;;;;;;;;10475172;28;20119;-43
2022/05/30 19:24:55;;;;;;;5.93;1.27;;;;;;;;;;10471059;28;20119;-44
2022/05/30 19:29:56;;;;;;;1.63;1.17;;;;;;;;;;10477528;28;20501;-44
2022/05/30 19:34:57;;;;;;;6.82;1.23;;;;;;;;;;10476435;28;20242;-46
2022/05/30 19:39:58;;;;;;;9.32;1.30;;;;;;;;;;10485658;28;20033;-44
2022/05/30 19:45:00;;;;;;;11.88;2.08;;;;;;;;;;10488392;28;20032;-44
2022/05/30 19:50:01;;;;;;;4.38;1.33;;;;;;;;;;10487313;28;20033;-44
2022/05/30 19:55:10;;;;;;;6.00;1.77;;;;;;;;;;10477227;28;20036;-44
2022/05/30 20:00:17;;;;;;;6.47;1.20;;;;;;;;;;10487724;28;20029;-44
2022/05/30 20:05:19;;;;;;;3.85;1.15;;;;;;;;;;10489047;28;20067;-44
2022/05/30 20:10:22;;;;;;;9.02;1.30;;;;;;;;;;10492133;28;20028;-44
2022/05/30 20:15:23;;;;;;;4.53;1.10;;;;;;;;;;10496592;28;20483;-44
2022/05/30 20:20:24;;;;;;;5.75;1.70;;;;;;;;;;10496023;28;20029;-44
2022/05/30 20:25:25;;;;;;;6.43;1.65;;;;;;;;;;10495442;28;20490;-44
2022/05/30 20:30:26;;;;;;;7.80;1.10;;;;;;;;;;10485820;28;20234;-44
2022/05/30 20:35:27;;;;;;;2.17;1.10;;;;;;;;;;10494430;28;20225;-44
2022/05/30 20:45:57;;;;;;;3.70;1.23;;;;;;;;;;10423170;28;20049;-44
2022/05/30 20:50:58;;;;;;;4.97;1.30;;;;;;;;;;10493720;28;20059;-44
2022/05/30 20:56:00;;;;;;;1.77;1.20;;;;;;;;;;10490252;28;20021;-44
2022/05/30 21:01:01;;;;;;;5.05;1.10;;;;;;;;;;10469927;28;20032;-44
2022/05/30 21:06:01;;;;;;;4.20;1.10;;;;;;;;;;10483909;28;20393;-43
2022/05/30 21:11:02;;;;;;;3.45;1.20;;;;;;;;;;10481317;28;20036;-45
2022/05/30 21:16:26;;;;;;;2.35;1.10;;;;;;;;;;10485770;28;20047;-43
2022/05/30 21:21:31;;;;;;;4.97;1.25;;;;;;;;;;10478445;28;20392;-46
2022/05/30 21:26:32;;;;;;;7.20;1.50;;;;;;;;;;10469340;28;20031;-44
2022/05/30 21:31:41;;;;;;;8.85;1.92;;;;;;;;;;10484639;28;20400;-44
2022/05/30 21:36:55;;;;;;;9.88;2.20;;;;;;;;;;10476317;28;20500;-43
2022/05/30 21:41:56;;;;;;;21.98;2.83;;;;;;;;;;10470967;28;20452;-44
2022/05/30 21:46:56;;;;;;;17.83;2.75;;;;;;;;;;10489974;28;20063;-44
2022/05/30 21:51:57;;;;;;;10.73;2.55;;;;;;;;;;10491055;28;20353;-43
2022/05/30 22:02:18;;;;;;;13.88;2.58;;;;;;;;;;10487547;28;20025;-43
2022/05/30 22:07:18;;;;;;;7.63;2.42;;;;;;;;;;10489716;28;20032;-44
2022/05/30 22:12:19;;;;;;;10.00;2.53;;;;;;;;;;10488617;28;20395;-44
2022/05/30 22:17:20;;;;;;;8.90;2.05;;;;;;;;;;10488273;28;20060;-44
2022/05/30 22:22:20;;;;;;;14.48;2.63;;;;;;;;;;10491171;28;20025;-44
2022/05/30 22:27:21;;;;;;;6.40;1.92;;;;;;;;;;10486618;28;20028;-44
2022/05/30 22:32:21;;;;;;;14.45;2.80;;;;;;;;;;10490827;28;20117;-44
2022/05/30 22:37:22;;;;;;;8.43;2.63;;;;;;;;;;10471254;28;20021;-45
2022/05/30 22:42:23;;;;;;;5.93;1.92;;;;;;;;;;10492270;28;20488;-44
2022/05/30 22:47:23;;;;;;;9.82;2.42;;;;;;;;;;10488125;28;20025;-43
2022/05/30 22:52:25;;;;;;;6.88;1.92;;;;;;;;;;10478754;28;20482;-45
2022/05/30 22:57:27;;;;;;;9.50;2.10;;;;;;;;;;10487747;28;20105;-44
2022/05/30 23:02:29;;;;;;;18.15;3.08;;;;;;;;;;10489031;28;20041;-45
2022/05/30 23:07:30;;;;;;;9.73;1.95;;;;;;;;;;10489063;28;20016;-44
2022/05/30 23:12:31;;;;;;;6.47;1.98;;;;;;;;;;10483006;28;20024;-43
2022/05/30 23:17:32;;;;;;;5.30;2.00;;;;;;;;;;10489487;28;20146;-44
2022/05/30 23:22:33;;;;;;;5.55;2.05;;;;;;;;;;10489886;28;20102;-45
2022/05/30 23:27:35;;;;;;;3.75;1.80;;;;;;;;;;10472260;28;20028;-44
2022/05/30 23:32:35;;;;;;;9.07;2.28;;;;;;;;;;10476410;28;20140;-45
2022/05/30 23:37:36;;;;;;;3.50;1.58;;;;;;;;;;10469639;28;20410;-44
